Currently 58°F in French Valley, California, USA
58°F
61°F / 58°F
3 mph SE
0.00"
Friday, April 26, 2019 12:55 AM PDT

French Valley, California Weather Summary
Last 36 Hours

Temperature Winds Hourly Humidity Dewpoint
Time Report Norm Report Norm Max Gusts Precip. Rpt. Norm Rpt. Norm Pressure
1,3Fri 12:55 AM  58.3°F  56°F  3 mph SE  2 mph  5 mph  0.00"  80%  83%  52°F  50°F  30.07"
2Fri 12:02 AM  60.5°F  56°F  2 mph E  2 mph  none  ----  72%  82%  51°F  51°F  30.06"
Fri 12:00 AM  60.5°F  56°F  calm  2 mph  none  0.00"  72%  82%  51°F  51°F  30.06"
Thu 11:00 PM  62.3°F  57°F  calm  2 mph  5 mph  0.00"  71%  82%  52°F  51°F  30.06"
Thu 10:00 PM  65.6°F  58°F  3 mph SE  3 mph  5 mph  0.00"  62%  79%  52°F  52°F  30.06"
Thu 09:00 PM  67.0°F  60°F  2 mph SE  4 mph  6 mph  0.00"  63%  75%  53°F  52°F  30.05"
Thu 08:00 PM  68.9°F  62°F  3 mph SE  5 mph  9 mph  0.00"  60%  70%  54°F  52°F  30.03"
Thu 07:00 PM  73.6°F  65°F  4 mph S  7 mph  13 mph  0.00"  45%  63%  50°F  52°F  30.01"
Thu 06:00 PM  77.4°F  69°F  8 mph S  8 mph  15 mph  0.00"  37%  56%  48°F  52°F  30.00"
Thu 05:00 PM  80.4°F  71°F  8 mph S  8 mph  17 mph  0.00"  30%  52%  45°F  52°F  30.00"
Thu 04:00 PM  82.7°F  73°F  6 mph SW  8 mph  17 mph  0.00"  30%  49%  47°F  52°F  30.00"
Thu 03:00 PM  83.7°F  74°F  4 mph SW  8 mph  15 mph  0.00"  30%  46%  48°F  51°F  30.01"
Thu 02:00 PM  83.5°F  74°F  7 mph S  7 mph  15 mph  0.00"  31%  45%  49°F  50°F  30.03"
Thu 01:00 PM  82.9°F  73°F  5 mph SW  6 mph  15 mph  0.00"  33%  46%  50°F  50°F  30.04"
Thu 12:00 PM  81.7°F  71°F  2 mph W  5 mph  9 mph  0.00"  32%  48%  48°F  50°F  30.06"
Thu 11:00 AM  77.7°F  68°F  2 mph S  4 mph  8 mph  0.00"  35%  54%  47°F  50°F  30.08"
Thu 10:00 AM  73.6°F  65°F  2 mph SW  3 mph  6 mph  0.00"  52%  62%  54°F  51°F  30.08"
Thu 09:00 AM  67.8°F  61°F  2 mph NW  3 mph  5 mph  0.00"  64%  73%  55°F  51°F  30.08"
Thu 08:00 AM  62.8°F  57°F  1 mph NW  2 mph  4 mph  0.00"  71%  82%  53°F  51°F  30.08"
Thu 07:00 AM  56.6°F  53°F  calm  1 mph  3 mph  0.00"  78%  87%  50°F  49°F  30.07"
Thu 06:00 AM  55.5°F  53°F  calm  1 mph  3 mph  0.00"  79%  87%  49°F  49°F  30.05"
Thu 05:00 AM  56.0°F  53°F  2 mph E  1 mph  4 mph  0.00"  81%  87%  50°F  49°F  30.05"
Thu 04:00 AM  57.0°F  54°F  2 mph E  1 mph  2 mph  0.00"  77%  86%  50°F  49°F  30.05"
Thu 03:00 AM  57.0°F  54°F  2 mph NE  1 mph  2 mph  0.00"  72%  86%  48°F  50°F  30.05"
Thu 02:00 AM  58.3°F  55°F  calm  2 mph  3 mph  0.00"  72%  85%  49°F  50°F  30.05"
Thu 01:00 AM  59.6°F  55°F  1 mph E  2 mph  5 mph  0.00"  80%  85%  53°F  51°F  30.06"
Thu 12:00 AM  60.8°F  56°F  4 mph E  2 mph  6 mph  0.00"  79%  83%  54°F  51°F  30.06"
Wed 11:00 PM  62.7°F  57°F  3 mph SE  2 mph  5 mph  0.00"  77%  83%  55°F  52°F  30.05"
Wed 10:00 PM  64.9°F  58°F  3 mph SE  3 mph  4 mph  0.00"  64%  80%  52°F  52°F  30.05"
Wed 09:00 PM  67.1°F  60°F  2 mph SE  4 mph  5 mph  0.00"  61%  77%  53°F  52°F  30.04"
Wed 08:00 PM  70.2°F  62°F  2 mph SE  5 mph  9 mph  0.00"  54%  72%  52°F  52°F  30.02"
Wed 07:00 PM  74.2°F  65°F  5 mph S  7 mph  13 mph  0.00"  52%  65%  55°F  53°F  30.00"
Wed 06:00 PM  77.2°F  69°F  9 mph S  8 mph  15 mph  0.00"  44%  57%  53°F  53°F  29.99"
Wed 05:00 PM  79.7°F  71°F  6 mph S  8 mph  14 mph  0.00"  42%  53%  54°F  53°F  29.99"
Wed 04:00 PM  81.4°F  73°F  5 mph SW  8 mph  17 mph  0.00"  40%  49%  54°F  52°F  29.99"
Wed 03:00 PM  82.4°F  74°F  11 mph S  8 mph  16 mph  0.00"  39%  47%  54°F  52°F  30.01"
Wed 02:00 PM  82.8°F  74°F  4 mph S  7 mph  11 mph  0.00"  39%  45%  55°F  51°F  30.03"
Wed 01:00 PM  80.4°F  73°F  4 mph SW  6 mph  11 mph  0.00"  41%  46%  54°F  50°F  30.06"
Wed 12:00 PM  76.3°F  71°F  8 mph S  4 mph  14 mph  0.00"  45%  48%  53°F  50°F  30.09"

  1. Current weather data. No green row appears if the current weather data is also the high or low for the current day.
  2. High temperature for the current day.
  3. Low temperature for the current day.

The French Valley, California weather pages are a service of WeatherCurrents. French Valley is located in southwestern Riverside County, California, north of Temecula, east of Murrieta, and south of Winchester. French Valley is bordered by Lake Skinner.
Copyright ©2019  WeatherCurrents. All rights reserved. - Submit questions and comments - Privacy Policy

This page automatically refreshes every 10 minutes.